Latest Weather Observations for Armidale Airport

IDN60801

Issued at 12:32 pm EST Sunday 28 May 2017 (issued every 30 minutes, with the page automatically refreshed every 10 minutes)

About weather observations | Map of weather stations | Latest weather observations for NSW | Other Formats
Station Details ID: 056238 Name: ARMIDALE AIRPORT AWS Lat: -30.53 Lon: 151.62 Height: 1079.0 m
Data from the previous 72 hours. | See also: Recent months at Armidale Airport
Date/Time
EST
Temp
°C
App
Temp
°C
Dew
Point
°C
Rel
Hum
%
Delta-T
°C
Wind Press
QNH
hPa
Press
MSL
hPa
Rain since
9am
mm
Dir  Spd
km/h
Gust
km/h
Spd
kts
Gust
kts
28/12:30pm 11.8 8.0 11.2 96 0.3 NNW 22 30 12 16 1017.3 1015.8 0.6
28/12:00pm 11.7 8.5 11.2 97 0.3 NNW 19 28 10 15 1017.6 1016.1 0.6
28/11:53am 11.3 8.3 10.7 96 0.3 NNW 17 24 9 13 1017.8 1016.3 0.6
28/11:30am 11.8 8.6 11.3 97 0.3 NNW 19 24 10 13 1018.0 1016.6 0.6
28/11:00am 11.5 7.7 11.2 98 0.2 NW 22 32 12 17 1018.4 1016.9 0.6
28/10:45am 11.3 6.7 11.1 99 0.1 NNW 26 35 14 19 1018.4 1016.9 0.6
28/10:30am 11.0 6.7 10.8 99 0.1 NNW 24 33 13 18 1018.4 1016.9 0.2
28/10:14am 10.7 7.3 10.5 99 0.1 NNW 19 28 10 15 1018.7 1017.2 0.2
28/10:00am 10.7 7.1 10.7 100 0.0 NW 20 28 11 15 1019.4 1017.9 0.0
28/09:30am 10.2 7.8 10.2 100 0.0 N 13 20 7 11 1018.9 1017.5 0.0
28/09:00am 8.7 6.7 8.7 100 0.0 NE 9 20 5 11 1019.1 1017.7 17.8
28/08:30am 8.4 5.6 8.4 100 0.0 NE 13 17 7 9 1019.1 1017.7 17.8
28/08:11am 8.2 6.1 8.2 100 0.0 N 9 13 5 7 1019.8 1018.4 17.2
28/08:00am 8.3 5.8 8.3 100 0.0 NNW 11 17 6 9 1020.0 1018.6 16.4
28/07:41am 8.3 6.2 8.3 100 0.0 NNW 9 15 5 8 1019.7 1018.3 15.8
28/07:30am 8.3 6.2 8.3 100 0.0 NW 9 13 5 7 1019.5 1018.0 15.4
28/07:27am 8.3 5.8 8.3 100 0.0 WNW 11 17 6 9 1019.6 1018.1 15.0
28/07:00am 8.3 6.6 8.3 100 0.0 NW 7 9 4 5 1019.3 1017.8 13.4
28/06:59am 8.3 6.6 8.3 100 0.0 WNW 7 9 4 5 1019.3 1017.8 13.4
28/06:30am 8.5 5.7 8.5 100 0.0 WNW 13 17 7 9 1019.8 1018.4 11.6
28/06:16am 8.5 6.8 8.5 100 0.0 NW 7 9 4 5 1019.3 1017.8 10.8
28/06:05am 8.5 6.4 8.4 99 0.1 WNW 9 11 5 6 1019.4 1017.9 10.0
28/06:00am 8.6 6.6 8.5 99 0.1 WNW 9 13 5 7 1019.3 1017.8 10.0
28/05:42am 8.6 5.8 8.5 99 0.1 WNW 13 19 7 10 1019.6 1018.1 8.4
28/05:36am 8.7 5.5 8.6 99 0.1 WNW 15 22 8 12 1019.6 1018.1 8.0
28/05:30am 8.6 5.4 8.5 99 0.1 NW 15 22 8 12 1019.7 1018.3 7.4
28/05:12am 8.3 5.0 8.0 98 0.2 W 15 22 8 12 1019.9 1018.5 5.6
28/05:04am 8.4 5.5 8.1 98 0.2 WSW 13 17 7 9 1019.4 1017.9 4.4
28/05:00am 8.5 5.6 8.2 98 0.2 WSW 13 19 7 10 1019.3 1017.8 4.4
28/04:30am 8.9 3.1 8.1 95 0.4 WNW 28 37 15 20 1019.5 1018.0 1.6
28/04:21am 9.1 2.6 8.2 94 0.5 WNW 32 44 17 24 1019.4 1017.9 0.4
28/04:00am 10.7 6.1 8.1 84 1.3 WNW 22 33 12 18 1019.1 1017.7 0.2
28/03:30am 10.9 6.7 8.3 84 1.4 N 20 30 11 16 1018.5 1017.0 0.2
28/03:00am 9.5 6.6 8.1 91 0.7 N 13 17 7 9 1018.8 1017.3 0.2
28/02:30am 7.9 5.4 6.7 92 0.6 NW 9 11 5 6 1019.0 1017.6 0.2
28/02:00am 7.9 6.0 6.7 92 0.6 NW 6 7 3 4 1019.4 1017.9 0.2
28/01:30am 6.3 3.9 5.3 93 0.5 N 7 11 4 6 1019.6 1018.1 0.2
28/01:00am 5.5 2.5 4.2 91 0.6 NE 9 13 5 7 1019.8 1018.4 0.2
28/12:30am 6.4 2.4 5.0 91 0.7 NE 15 17 8 9 1019.6 1018.1 0.2
28/12:00am 6.5 2.9 5.1 91 0.7 NE 13 17 7 9 1020.0 1018.6 0.2
 
Date/Time
EST
Temp
°C
App
Temp
°C
Dew
Point
°C
Rel
Hum
%
Delta-T
°C
Wind Press
QNH
hPa
Press
MSL
hPa
Rain since
9am
mm
Dir  Spd
km/h
Gust
km/h
Spd
kts
Gust
kts
27/11:30pm 6.4 2.3 4.6 88 0.8 ENE 15 15 8 8 1020.6 1019.2 0.2
27/11:00pm 7.8 4.3 5.6 86 1.1 N 13 15 7 8 1021.0 1019.6 0.2
27/10:30pm 7.8 4.7 5.4 85 1.1 N 11 13 6 7 1021.3 1019.8 0.2
27/10:00pm 8.1 5.1 5.9 86 1.1 N 11 13 6 7 1021.5 1020.1 0.2
27/09:30pm 7.6 4.0 5.2 85 1.1 NNE 13 13 7 7 1021.5 1020.1 0.2
27/09:00pm 6.9 3.1 4.0 82 1.3 N 13 13 7 7 1021.7 1020.3 0.2
27/08:30pm 7.1 4.1 4.1 81 1.4 NNE 9 11 5 6 1021.7 1020.3 0.2
27/08:00pm 8.7 5.6 5.4 80 1.6 N 11 13 6 7 1021.7 1020.3 0.2
27/07:30pm 8.9 6.2 5.5 79 1.6 N 9 11 5 6 1021.6 1020.2 0.2
27/07:00pm 9.3 6.1 5.3 76 1.9 NNW 11 13 6 7 1021.5 1020.1 0.2
27/06:30pm 10.4 8.3 6.5 77 1.9 N 7 9 4 5 1021.3 1019.8 0.2
27/06:00pm 9.9 6.9 5.9 76 2.0 NW 11 11 6 6 1021.0 1019.6 0.2
27/05:30pm 10.2 7.8 5.4 72 2.3 NW 7 9 4 5 1020.8 1019.4 0.2
27/05:00pm 11.8 10.9 6.1 68 2.8 CALM 0 0 0 0 1020.7 1019.3 0.2
27/04:30pm 15.0 14.9 9.6 70 3.0 CALM 0 0 0 0 1020.5 1019.1 0.2
27/04:00pm 13.8 11.7 8.4 70 2.9 W 9 11 5 6 1020.6 1019.2 0.2
27/03:30pm 15.3 12.1 8.5 64 3.6 WNW 15 20 8 11 1020.6 1019.2 0.2
27/03:00pm 15.0 11.9 8.9 67 3.3 WNW 15 20 8 11 1020.6 1019.2 0.2
27/02:30pm 16.1 12.7 9.3 64 3.7 WNW 17 24 9 13 1020.5 1019.1 0.2
27/02:00pm 15.5 12.2 9.6 68 3.2 NW 17 22 9 12 1020.7 1019.3 0.2
27/01:30pm 15.0 11.4 9.8 71 2.9 W 19 26 10 14 1020.9 1019.5 0.2
27/01:00pm 14.8 11.6 9.8 72 2.7 W 17 20 9 11 1021.4 1020.0 0.2
27/12:30pm 15.1 11.5 9.7 70 3.0 W 19 24 10 13 1021.6 1020.2 0.2
27/12:00pm 16.4 12.4 8.9 61 4.1 NW 20 28 11 15 1021.9 1020.5 0.2
27/11:30am 15.5 11.1 9.0 65 3.5 NW 22 32 12 17 1022.4 1021.0 0.2
27/11:00am 15.6 11.9 10.2 70 3.0 NNW 20 30 11 16 1022.9 1021.6 0.0
27/10:30am 13.6 9.6 10.4 81 1.8 NW 22 30 12 16 1023.4 1022.0 0.0
27/10:00am 13.8 12.7 13.2 96 0.3 NNW 11 17 6 9 1023.7 1022.3 0.0
27/09:30am 12.4 11.4 12.2 99 0.1 NW 9 15 5 8 1023.7 1022.3 0.0
27/09:00am 11.6 11.7 11.6 100 0.0 NNE 2 6 1 3 1023.5 1022.1 0.2
27/08:30am 9.2 7.7 9.2 100 0.0 NE 7 9 4 5 1023.8 1022.5 0.2
27/08:00am 7.7 5.1 7.7 100 0.0 ENE 11 13 6 7 1023.7 1022.3 0.2
27/07:30am 6.7 3.5 6.7 100 0.0 ENE 13 15 7 8 1023.7 1022.3 0.2
27/07:00am 6.0 2.6 6.0 100 0.0 NE 13 15 7 8 1023.5 1022.1 0.0
27/06:30am 5.1 2.3 5.1 100 0.0 ENE 9 11 5 6 1023.2 1021.9 0.0
27/06:00am 4.1 1.7 4.1 100 0.0 E 6 7 3 4 1022.9 1021.6 0.0
27/05:38am 3.9 1.2 3.9 100 0.0 NE 7 9 4 5 1022.6 1021.2 0.0
27/05:30am 3.8 1.1 3.8 100 0.0 ENE 7 7 4 4 1022.6 1021.2 0.0
27/05:00am 4.6 1.3 4.6 100 0.0 NNE 11 11 6 6 1022.4 1021.0 0.0
27/04:50am 3.6 0.5 3.6 100 0.0 NNE 9 11 5 6 1022.4 1021.0 0.0
27/04:36am 3.6 0.5 3.6 100 0.0 NNE 9 9 5 5 1022.2 1020.9 0.0
27/04:30am 4.4 1.5 4.4 100 0.0 NNE 9 11 5 6 1022.2 1020.9 0.0
27/04:11am 5.1 1.9 5.1 100 0.0 NE 11 13 6 7 1022.1 1020.8 0.0
27/04:00am 5.4 2.3 5.4 100 0.0 ENE 11 13 6 7 1022.1 1020.8 0.0
27/03:30am 5.2 2.4 5.2 100 0.0 E 9 11 5 6 1022.4 1021.0 0.0
27/03:00am 5.5 2.0 5.5 100 0.0 ENE 13 13 7 7 1022.4 1021.0 0.0
27/02:30am 5.4 1.9 5.4 100 0.0 ENE 13 15 7 8 1022.5 1021.1 0.0
27/02:11am 5.1 1.5 5.1 100 0.0 ENE 13 15 7 8 1022.5 1021.1 0.0
27/02:00am 5.1 1.5 5.1 100 0.0 ENE 13 15 7 8 1022.5 1021.1 0.0
27/01:58am 5.1 1.5 5.1 100 0.0 ENE 13 15 7 8 1022.5 1021.1 0.0
27/01:42am 5.6 1.8 5.6 100 0.0 ENE 15 17 8 9 1022.9 1021.6 0.0
27/01:30am 5.6 1.4 5.6 100 0.0 ENE 17 19 9 10 1022.9 1021.6 0.0
27/01:00am 4.8 1.2 4.8 100 0.0 E 13 13 7 7 1022.9 1021.6 0.0
27/12:37am 6.4 2.7 6.4 100 0.0 E 15 17 8 9 1022.9 1021.6 0.0
27/12:30am 6.6 3.3 6.6 100 0.0 E 13 17 7 9 1022.9 1021.6 0.0
27/12:27am 6.7 3.5 6.7 100 0.0 E 13 15 7 8 1022.9 1021.6 0.0
27/12:00am 6.8 3.6 6.8 100 0.0 E 13 15 7 8 1023.0 1021.7 0.0
 
Date/Time
EST
Temp
°C
App
Temp
°C
Dew
Point
°C
Rel
Hum
%
Delta-T
°C
Wind Press
QNH
hPa
Press
MSL
hPa
Rain since
9am
mm
Dir  Spd
km/h
Gust
km/h
Spd
kts
Gust
kts
26/11:30pm 7.3 3.4 7.2 99 0.0 E 17 17 9 9 1022.9 1021.6 0.0
26/11:00pm 7.5 4.0 7.4 99 0.0 E 15 17 8 9 1022.9 1021.6 0.0
26/10:30pm 7.5 3.6 7.2 98 0.1 E 17 19 9 10 1022.6 1021.2 0.0
26/10:00pm 7.4 3.8 6.8 96 0.3 E 15 17 8 9 1022.8 1021.4 0.0
26/09:30pm 8.1 4.6 7.3 95 0.4 ESE 15 17 8 9 1022.7 1021.3 0.0
26/09:00pm 7.1 3.8 6.2 94 0.4 E 13 15 7 8 1022.8 1021.4 0.0
26/08:30pm 6.7 3.2 5.3 91 0.7 E 13 15 7 8 1022.6 1021.2 0.0
26/08:00pm 7.3 4.1 5.0 85 1.1 E 11 13 6 7 1022.4 1021.0 0.0
26/07:30pm 7.2 3.8 4.0 80 1.5 E 11 13 6 7 1022.2 1020.9 0.0
26/07:00pm 10.3 7.4 6.5 77 1.9 SE 11 13 6 7 1021.9 1020.5 0.0
26/06:30pm 10.0 7.6 5.4 73 2.2 SSE 7 13 4 7 1021.6 1020.2 0.0
26/06:00pm 10.5 9.5 5.5 71 2.4 CALM 0 0 0 0 1021.4 1020.0 0.0
26/05:30pm 10.8 8.4 4.5 65 3.0 WNW 6 7 3 4 1021.1 1019.7 0.0
26/05:00pm 13.4 11.0 5.1 57 4.1 WNW 7 7 4 4 1020.9 1019.5 0.0
26/04:30pm 15.5 13.1 5.4 51 5.1 WNW 7 9 4 5 1020.8 1019.4 0.0
26/04:00pm 16.3 14.0 5.9 50 5.3 W 7 11 4 6 1020.7 1019.3 0.0
26/03:30pm 16.3 13.5 5.0 47 5.7 W 9 13 5 7 1020.7 1019.3 0.0
26/03:00pm 16.7 13.9 5.0 46 5.9 WNW 9 15 5 8 1020.7 1019.3 0.0
26/02:30pm 16.2 13.1 5.5 49 5.4 W 11 17 6 9 1020.8 1019.4 0.0
26/02:00pm 15.9 12.3 4.9 48 5.5 WSW 13 17 7 9 1020.9 1019.5 0.0
26/01:30pm 15.7 11.6 4.1 46 5.7 WSW 15 20 8 11 1021.0 1019.6 0.0
26/01:00pm 15.4 11.5 5.3 51 5.1 W 15 20 8 11 1021.3 1019.8 0.0
26/12:30pm 15.0 11.1 5.2 52 4.9 W 15 20 8 11 1021.6 1020.2 0.0
26/12:00pm 15.2 11.4 6.0 54 4.7 W 15 20 8 11 1022.0 1020.6 0.0
26/11:30am 15.3 12.1 6.8 57 4.4 WNW 13 19 7 10 1022.4 1021.0 0.0
26/11:00am 14.9 11.6 6.5 57 4.3 WNW 13 20 7 11 1022.7 1021.3 0.0
26/10:30am 14.3 10.8 7.1 62 3.7 W 15 19 8 10 1022.8 1021.4 0.0
26/10:00am 13.3 9.8 7.1 66 3.2 W 15 19 8 10 1022.8 1021.4 0.0
26/09:30am 12.9 10.3 9.4 79 1.9 WNW 13 19 7 10 1022.8 1021.4 0.0
26/09:00am 11.4 9.7 9.8 90 0.9 WNW 9 11 5 6 1022.8 1021.4 0.2
26/08:30am 10.2 8.5 9.7 97 0.3 NW 9 13 5 7 1022.8 1021.4 0.2
26/08:00am 8.1 6.3 8.0 99 0.1 NW 7 9 4 5 1022.7 1021.3 0.2
26/07:30am 5.1 2.7 5.1 100 0.0 WNW 7 9 4 5 1022.4 1021.0 0.2
26/07:00am 4.2 2.5 4.2 100 0.0 W 2 9 1 5 1022.1 1020.8 0.2
26/06:30am 2.7 0.4 2.7 100 0.0 NNW 4 6 2 3 1021.7 1020.3 0.2
26/06:00am 4.9 2.4 4.9 100 0.0 WNW 7 9 4 5 1021.5 1020.1 0.2
26/05:39am 4.4 1.8 4.4 100 0.0 WNW 7 9 4 5 1021.4 1020.0 0.2
26/05:30am 4.1 1.5 4.1 100 0.0 WNW 7 9 4 5 1021.4 1020.0 0.2
26/05:00am 2.4 -0.3 2.4 100 0.0 W 6 7 3 4 1021.3 1019.8 0.2
26/04:30am 1.8 -1.2 1.8 100 0.0 W 7 7 4 4 1021.1 1019.7 0.2
26/04:06am 2.7 1.1 2.7 100 0.0 CALM 0 0 0 0 1020.9 1019.5 0.2
26/04:00am 3.3 1.9 3.3 100 0.0 CALM 0 0 0 0 1020.8 1019.4 0.2
26/03:30am 3.8 1.1 3.8 100 0.0 ENE 7 7 4 4 1020.8 1019.4 0.2
26/03:00am 2.9 0.6 2.8 99 0.0 E 4 6 2 3 1021.0 1019.6 0.2
26/02:30am 3.7 1.2 3.6 99 0.0 ESE 6 7 3 4 1021.0 1019.6 0.2
26/02:00am 4.3 1.7 4.0 98 0.1 ESE 7 7 4 4 1021.1 1019.7 0.2
26/01:30am 3.5 0.3 2.9 96 0.3 ENE 9 11 5 6 1021.1 1019.7 0.2
26/01:00am 4.6 3.3 4.2 97 0.2 CALM 0 0 0 0 1021.3 1019.8 0.2
26/12:30am 4.1 1.9 3.5 96 0.3 NE 4 6 2 3 1021.6 1020.2 0.2
26/12:00am 3.8 1.0 3.2 96 0.3 NE 7 9 4 5 1021.6 1020.2 0.2
 
Date/Time
EST
Temp
°C
App
Temp
°C
Dew
Point
°C
Rel
Hum
%
Delta-T
°C
Wind Press
QNH
hPa
Press
MSL
hPa
Rain since
9am
mm
Dir  Spd
km/h
Gust
km/h
Spd
kts
Gust
kts
25/11:30pm 4.5 1.8 3.8 95 0.3 ENE 7 9 4 5 1021.9 1020.5 0.2
25/11:00pm 3.6 0.3 2.7 94 0.4 NE 9 9 5 5 1022.0 1020.6 0.2
25/10:30pm 3.1 -0.7 1.8 91 0.5 ENE 11 13 6 7 1021.9 1020.5 0.2
25/10:00pm 4.2 0.8 2.1 86 0.9 ENE 9 9 5 5 1021.9 1020.5 0.2
25/09:30pm 6.5 5.1 3.7 82 1.3 CALM 0 0 0 0 1022.0 1020.6 0.2
25/09:00pm 6.7 5.3 3.7 81 1.4 CALM 0 0 0 0 1022.0 1020.6 0.2
25/08:30pm 6.9 5.5 3.5 79 1.5 CALM 0 0 0 0 1022.1 1020.8 0.2
25/08:00pm 7.9 6.6 4.3 78 1.7 CALM 0 0 0 0 1022.1 1020.8 0.2
25/07:30pm 8.1 6.8 3.9 75 1.9 CALM 0 0 0 0 1022.0 1020.6 0.2
25/07:00pm 7.7 6.2 2.8 71 2.2 CALM 0 0 0 0 1021.8 1020.4 0.2
25/06:30pm 9.5 6.7 3.3 65 2.9 E 7 9 4 5 1021.5 1020.1 0.2
25/06:00pm 8.0 5.8 3.3 72 2.1 WNW 4 7 2 4 1021.3 1019.8 0.2
25/05:30pm 10.0 7.4 4.0 66 2.8 WNW 7 9 4 5 1020.9 1019.5 0.2
25/05:00pm 12.5 9.6 4.5 58 3.9 WNW 9 11 5 6 1020.7 1019.3 0.2
25/04:30pm 14.4 11.4 4.1 50 5.0 W 9 13 5 7 1020.6 1019.2 0.2
25/04:00pm 15.4 11.7 4.2 47 5.5 WSW 13 17 7 9 1020.4 1018.9 0.2
25/03:30pm 16.1 12.3 3.9 44 6.0 WSW 13 17 7 9 1020.1 1018.7 0.2
25/03:00pm 16.5 13.0 3.6 42 6.3 W 11 15 6 8 1020.0 1018.6 0.2
25/02:30pm 16.5 13.3 2.9 40 6.6 W 9 11 5 6 1019.9 1018.5 0.2
25/02:00pm 16.6 14.6 2.2 38 6.9 WNW 2 7 1 4 1020.0 1018.6 0.2
25/01:30pm 16.1 13.2 2.5 40 6.5 SW 7 13 4 7 1020.3 1018.8 0.2
25/01:24pm 16.1 13.3 3.2 42 6.3 SW 7 13 4 7 1020.3 1018.8 0.2
25/01:07pm 15.8 12.6 0.8 36 6.9 NNW 7 11 4 6 1020.3 1018.8 0.2
25/01:00pm 16.1 13.1 1.0 36 7.0 NNE 6 9 3 5 1020.4 1018.9 0.2

Other Formats:

Comma delimited format used in spreadsheet applications
http://www.bom.gov.au/fwo/IDN60801/IDN60801.95773.axf

JavaScript Object Notation format (JSON) in row-major order
http://www.bom.gov.au/fwo/IDN60801/IDN60801.95773.json